createdAt,value
2017-10-11T00:00:23.865Z,1004.97
2017-10-11T00:01:25.281Z,1005.00
2017-10-11T00:02:26.706Z,1005.00
2017-10-11T00:03:28.133Z,1004.95
2017-10-11T00:04:29.561Z,1004.92
2017-10-11T00:05:30.978Z,1004.96
2017-10-11T00:06:32.397Z,1004.96
2017-10-11T00:07:33.817Z,1004.90
2017-10-11T00:08:35.237Z,1004.95
2017-10-11T00:09:36.652Z,1004.91
2017-10-11T00:10:38.067Z,1004.94
2017-10-11T00:11:39.497Z,1004.93
2017-10-11T00:12:40.927Z,1004.95
2017-10-11T00:13:42.343Z,1004.95
2017-10-11T00:14:43.777Z,1004.95
2017-10-11T00:15:45.216Z,1004.95
2017-10-11T00:16:46.636Z,1004.89
2017-10-11T00:17:48.067Z,1004.90
2017-10-11T00:18:49.486Z,1004.88
2017-10-11T00:19:50.915Z,1004.90
2017-10-11T00:20:52.339Z,1004.87
2017-10-11T00:21:53.755Z,1004.82
2017-10-11T00:22:55.187Z,1004.88
2017-10-11T00:23:56.610Z,1004.85
2017-10-11T00:24:58.030Z,1004.89
2017-10-11T00:25:59.482Z,1004.81
2017-10-11T00:27:00.897Z,1004.87
2017-10-11T00:28:02.356Z,1004.89
2017-10-11T00:29:03.775Z,1004.86
2017-10-11T00:30:05.193Z,1004.87
2017-10-11T00:31:06.617Z,1004.89
2017-10-11T00:32:08.041Z,1004.87
2017-10-11T00:33:09.467Z,1004.83
2017-10-11T00:34:10.892Z,1004.83
2017-10-11T00:35:12.308Z,1004.78
2017-10-11T00:36:13.734Z,1004.80
2017-10-11T00:37:15.153Z,1004.83
2017-10-11T00:38:16.569Z,1004.81
2017-10-11T00:39:17.985Z,1004.80
2017-10-11T00:40:19.400Z,1004.82
2017-10-11T00:41:20.816Z,1004.85
2017-10-11T00:42:22.246Z,1004.83
2017-10-11T00:43:23.657Z,1004.78
2017-10-11T00:44:25.082Z,1004.82
2017-10-11T00:45:26.505Z,1004.84
2017-10-11T00:46:27.921Z,1004.87
2017-10-11T00:47:29.344Z,1004.79
2017-10-11T00:48:30.768Z,1004.86
2017-10-11T00:49:32.196Z,1004.79
2017-10-11T00:50:33.612Z,1004.75
2017-10-11T00:51:35.038Z,1004.75
2017-10-11T00:52:36.456Z,1004.82
2017-10-11T00:53:37.872Z,1004.77
2017-10-11T00:54:39.302Z,1004.77
2017-10-11T00:55:40.712Z,1004.78
2017-10-11T00:56:42.128Z,1004.76
2017-10-11T00:57:43.546Z,1004.74
2017-10-11T00:58:44.971Z,1004.78
2017-10-11T00:59:46.396Z,1004.83
2017-10-11T01:00:47.820Z,1004.73
2017-10-11T01:01:49.238Z,1004.75
2017-10-11T01:02:50.662Z,1004.74
2017-10-11T01:03:52.076Z,1004.68
2017-10-11T01:04:53.495Z,1004.73
2017-10-11T01:05:54.910Z,1004.75
2017-10-11T01:06:56.336Z,1004.71
2017-10-11T01:07:57.774Z,1004.69
2017-10-11T01:08:59.197Z,1004.70
2017-10-11T01:10:00.620Z,1004.73
2017-10-11T01:11:02.043Z,1004.65
2017-10-11T01:12:03.464Z,1004.73
2017-10-11T01:13:04.881Z,1004.71
2017-10-11T01:14:06.310Z,1004.63
2017-10-11T01:15:07.734Z,1004.70
2017-10-11T01:16:09.148Z,1004.71
2017-10-11T01:17:10.572Z,1004.70
2017-10-11T01:18:11.991Z,1004.70
2017-10-11T01:19:13.411Z,1004.73
2017-10-11T01:20:14.831Z,1004.76
2017-10-11T01:21:16.251Z,1004.76
2017-10-11T01:22:17.669Z,1004.72
2017-10-11T01:23:19.095Z,1004.77
2017-10-11T01:24:20.513Z,1004.69
2017-10-11T01:25:21.933Z,1004.74
2017-10-11T01:26:23.438Z,1004.72
2017-10-11T01:27:24.854Z,1004.73
2017-10-11T01:28:26.345Z,1004.76
2017-10-11T01:29:27.765Z,1004.79
2017-10-11T01:30:29.182Z,1004.75
2017-10-11T01:31:30.604Z,1004.77
2017-10-11T01:32:32.022Z,1004.75
2017-10-11T01:33:33.509Z,1004.67
2017-10-11T01:34:34.940Z,1004.77
2017-10-11T01:35:36.400Z,1004.78
2017-10-11T01:36:37.819Z,1004.77
2017-10-11T01:37:39.237Z,1004.81
2017-10-11T01:38:40.656Z,1004.74
2017-10-11T01:39:42.078Z,1004.77
2017-10-11T01:40:43.496Z,1004.78
2017-10-11T01:41:44.919Z,1004.75
2017-10-11T01:42:46.339Z,1004.76
2017-10-11T01:43:47.762Z,1004.82
2017-10-11T01:44:49.183Z,1004.81
2017-10-11T01:45:50.593Z,1004.76
2017-10-11T01:46:52.036Z,1004.79
2017-10-11T01:47:53.458Z,1004.80
2017-10-11T01:48:54.882Z,1004.83
2017-10-11T01:49:56.306Z,1004.77
2017-10-11T01:50:57.727Z,1004.76
2017-10-11T01:51:59.148Z,1004.73
2017-10-11T01:53:00.568Z,1004.77
2017-10-11T01:54:01.982Z,1004.76
2017-10-11T01:55:03.403Z,1004.78
2017-10-11T01:56:04.814Z,1004.79
2017-10-11T01:57:06.243Z,1004.71
2017-10-11T01:58:07.663Z,1004.77
2017-10-11T01:59:09.080Z,1004.73
2017-10-11T02:00:10.501Z,1004.65
2017-10-11T02:01:11.928Z,1004.70
2017-10-11T02:02:13.346Z,1004.60
2017-10-11T02:03:14.785Z,1004.66
2017-10-11T02:04:16.211Z,1004.72
2017-10-11T02:05:17.638Z,1004.70
2017-10-11T02:06:19.058Z,1004.70
2017-10-11T02:07:20.474Z,1004.73
2017-10-11T02:08:21.894Z,1004.70
2017-10-11T02:09:23.316Z,1004.71
2017-10-11T02:10:24.735Z,1004.69
2017-10-11T02:11:26.153Z,1004.73
2017-10-11T02:12:27.576Z,1004.75
2017-10-11T02:13:28.995Z,1004.75
2017-10-11T02:14:30.418Z,1004.74
2017-10-11T02:15:31.847Z,1004.72
2017-10-11T02:16:33.265Z,1004.83
2017-10-11T02:17:34.681Z,1004.73
2017-10-11T02:18:36.105Z,1004.78
2017-10-11T02:19:37.542Z,1004.78
2017-10-11T02:20:38.955Z,1004.77
2017-10-11T02:21:40.370Z,1004.72
2017-10-11T02:22:41.798Z,1004.79
2017-10-11T02:23:43.220Z,1004.80
2017-10-11T02:24:44.630Z,1004.79
2017-10-11T02:25:46.053Z,1004.77
2017-10-11T02:26:47.465Z,1004.71
2017-10-11T02:27:48.886Z,1004.76
2017-10-11T02:28:50.304Z,1004.75
2017-10-11T02:29:51.724Z,1004.72
2017-10-11T02:30:53.140Z,1004.73
2017-10-11T02:31:54.593Z,1004.79
2017-10-11T02:32:56.016Z,1004.68
2017-10-11T02:33:57.444Z,1004.72
2017-10-11T02:34:58.864Z,1004.68
2017-10-11T02:36:00.296Z,1004.73
2017-10-11T02:37:01.707Z,1004.75
2017-10-11T02:38:03.136Z,1004.75
2017-10-11T02:39:04.560Z,1004.67
2017-10-11T02:40:05.985Z,1004.74
2017-10-11T02:41:07.405Z,1004.70
2017-10-11T02:42:08.832Z,1004.72
2017-10-11T02:43:10.255Z,1004.70
2017-10-11T02:44:11.681Z,1004.68
2017-10-11T02:45:13.106Z,1004.65
2017-10-11T02:46:14.526Z,1004.65
2017-10-11T02:47:15.948Z,1004.71
2017-10-11T02:48:17.368Z,1004.70
2017-10-11T02:49:18.787Z,1004.67
2017-10-11T02:50:20.206Z,1004.66
2017-10-11T02:51:21.615Z,1004.64
2017-10-11T02:52:23.038Z,1004.66
2017-10-11T02:53:24.452Z,1004.65
2017-10-11T02:54:25.874Z,1004.68
2017-10-11T02:55:27.293Z,1004.62
2017-10-11T02:56:28.715Z,1004.55
2017-10-11T02:57:30.169Z,1004.60
2017-10-11T02:58:31.589Z,1004.58
2017-10-11T02:59:33.006Z,1004.66
2017-10-11T03:00:34.432Z,1004.60
2017-10-11T03:01:35.852Z,1004.60
2017-10-11T03:02:37.281Z,1004.57
2017-10-11T03:03:38.705Z,1004.56
2017-10-11T03:04:40.125Z,1004.54
2017-10-11T03:05:41.541Z,1004.52
2017-10-11T03:06:42.963Z,1004.49
2017-10-11T03:07:44.380Z,1004.55
2017-10-11T03:08:45.799Z,1004.58
2017-10-11T03:09:47.218Z,1004.55
2017-10-11T03:10:48.651Z,1004.63
2017-10-11T03:11:50.075Z,1004.58
2017-10-11T03:12:51.494Z,1004.64
2017-10-11T03:13:52.917Z,1004.61
2017-10-11T03:14:54.340Z,1004.61
2017-10-11T03:15:55.755Z,1004.69
2017-10-11T03:16:57.182Z,1004.67
2017-10-11T03:17:58.602Z,1004.64
2017-10-11T03:19:00.030Z,1004.58
2017-10-11T03:20:01.442Z,1004.61
2017-10-11T03:21:02.877Z,1004.64
2017-10-11T03:22:04.327Z,1004.62
2017-10-11T03:23:05.735Z,1004.62
2017-10-11T03:24:07.158Z,1004.61
2017-10-11T03:25:08.756Z,1004.57
2017-10-11T03:26:10.179Z,1004.59
2017-10-11T03:27:11.594Z,1004.59
2017-10-11T03:28:13.016Z,1004.63
2017-10-11T03:29:14.437Z,1004.68
2017-10-11T03:30:15.857Z,1004.65
2017-10-11T03:31:17.274Z,1004.67
2017-10-11T03:32:18.703Z,1004.63
2017-10-11T03:33:20.122Z,1004.65
2017-10-11T03:34:21.541Z,1004.61
2017-10-11T03:35:22.961Z,1004.65
2017-10-11T03:36:24.385Z,1004.64
2017-10-11T03:37:25.807Z,1004.64
2017-10-11T03:38:27.234Z,1004.73
2017-10-11T03:39:28.707Z,1004.66
2017-10-11T03:40:30.139Z,1004.68
2017-10-11T03:41:33.070Z,1004.70
2017-10-11T03:42:34.484Z,1004.72
2017-10-11T03:43:35.914Z,1004.61
2017-10-11T03:44:37.337Z,1004.62
2017-10-11T03:45:38.715Z,1004.58
2017-10-11T03:46:40.138Z,1004.61
2017-10-11T03:47:41.556Z,1004.65
2017-10-11T03:48:42.982Z,1004.64
2017-10-11T03:49:44.420Z,1004.68
2017-10-11T03:50:45.834Z,1004.68
2017-10-11T03:51:47.257Z,1004.66
2017-10-11T03:52:48.680Z,1004.70
2017-10-11T03:53:50.113Z,1004.62
2017-10-11T03:54:51.529Z,1004.64
2017-10-11T03:55:52.944Z,1004.67
2017-10-11T03:56:54.359Z,1004.62
2017-10-11T03:57:55.778Z,1004.69
2017-10-11T03:58:57.202Z,1004.70
2017-10-11T03:59:58.616Z,1004.63
2017-10-11T04:01:00.034Z,1004.68
2017-10-11T04:02:01.468Z,1004.62
2017-10-11T04:03:02.885Z,1004.63
2017-10-11T04:04:04.308Z,1004.61
2017-10-11T04:05:05.733Z,1004.64
2017-10-11T04:06:07.149Z,1004.65
2017-10-11T04:07:08.564Z,1004.64
2017-10-11T04:08:09.985Z,1004.67
2017-10-11T04:09:11.408Z,1004.69
2017-10-11T04:10:12.832Z,1004.63
2017-10-11T04:11:14.250Z,1004.58
2017-10-11T04:12:15.670Z,1004.63
2017-10-11T04:13:17.101Z,1004.57
2017-10-11T04:14:18.527Z,1004.49
2017-10-11T04:15:19.954Z,1004.59
2017-10-11T04:16:21.378Z,1004.48
2017-10-11T04:17:22.790Z,1004.48
2017-10-11T04:18:24.204Z,1004.48
2017-10-11T04:19:25.616Z,1004.50
2017-10-11T04:20:27.043Z,1004.44
2017-10-11T04:21:28.466Z,1004.48
2017-10-11T04:22:29.881Z,1004.50
2017-10-11T04:23:31.300Z,1004.37
2017-10-11T04:24:32.741Z,1004.40
2017-10-11T04:25:34.166Z,1004.47
2017-10-11T04:26:35.590Z,1004.48
2017-10-11T04:27:37.018Z,1004.43
2017-10-11T04:28:38.464Z,1004.45
2017-10-11T04:29:39.884Z,1004.44
2017-10-11T04:30:41.317Z,1004.41
2017-10-11T04:31:42.733Z,1004.46
2017-10-11T04:32:44.149Z,1004.41
2017-10-11T04:33:45.580Z,1004.45
2017-10-11T04:34:46.997Z,1004.34
2017-10-11T04:35:48.422Z,1004.36
2017-10-11T04:36:49.839Z,1004.38
2017-10-11T04:37:51.250Z,1004.36
2017-10-11T04:38:52.667Z,1004.43
2017-10-11T04:39:54.106Z,1004.41
2017-10-11T04:40:55.525Z,1004.38
2017-10-11T04:41:56.946Z,1004.41
2017-10-11T04:42:58.368Z,1004.39
2017-10-11T04:43:59.802Z,1004.39
2017-10-11T04:45:01.231Z,1004.43
2017-10-11T04:46:02.657Z,1004.41
2017-10-11T04:47:04.076Z,1004.39
2017-10-11T04:48:05.510Z,1004.42
2017-10-11T04:49:06.964Z,1004.41
2017-10-11T04:50:08.401Z,1004.41
2017-10-11T04:51:09.817Z,1004.41
2017-10-11T04:52:11.236Z,1004.42
2017-10-11T04:53:12.653Z,1004.45
2017-10-11T04:54:14.079Z,1004.44
2017-10-11T04:55:15.853Z,1004.42
2017-10-11T04:56:17.440Z,1004.48
2017-10-11T04:57:18.853Z,1004.41
2017-10-11T04:58:20.293Z,1004.41
2017-10-11T04:59:22.210Z,1004.42
2017-10-11T05:00:23.663Z,1004.46
2017-10-11T05:01:25.094Z,1004.45
2017-10-11T05:02:26.511Z,1004.46
2017-10-11T05:03:28.056Z,1004.39
2017-10-11T05:04:29.484Z,1004.41
2017-10-11T05:05:30.915Z,1004.39
2017-10-11T05:06:32.412Z,1004.39
2017-10-11T05:07:33.830Z,1004.37
2017-10-11T05:08:35.257Z,1004.37
2017-10-11T05:09:36.671Z,1004.41
2017-10-11T05:10:38.101Z,1004.44
2017-10-11T05:11:39.518Z,1004.37
2017-10-11T05:12:40.949Z,1004.38
2017-10-11T05:13:42.374Z,1004.40
2017-10-11T05:14:43.795Z,1004.39
2017-10-11T05:15:45.212Z,1004.38
2017-10-11T05:16:46.635Z,1004.38
2017-10-11T05:17:48.057Z,1004.35
2017-10-11T05:18:49.482Z,1004.39
2017-10-11T05:19:50.905Z,1004.35
2017-10-11T05:20:52.319Z,1004.35
2017-10-11T05:21:53.732Z,1004.38
2017-10-11T05:22:55.147Z,1004.41
2017-10-11T05:23:56.572Z,1004.44
2017-10-11T05:24:57.998Z,1004.45
2017-10-11T05:25:59.421Z,1004.48
2017-10-11T05:27:00.838Z,1004.46
2017-10-11T05:28:02.254Z,1004.50
2017-10-11T05:29:03.666Z,1004.50
2017-10-11T05:30:05.090Z,1004.50
2017-10-11T05:31:06.509Z,1004.52
2017-10-11T05:32:07.943Z,1004.55
2017-10-11T05:33:09.363Z,1004.53
2017-10-11T05:34:10.785Z,1004.47
2017-10-11T05:35:12.977Z,1004.53
2017-10-11T05:36:14.407Z,1004.49
2017-10-11T05:37:15.823Z,1004.49
2017-10-11T05:38:17.246Z,1004.53
2017-10-11T05:39:18.665Z,1004.54
2017-10-11T05:40:20.089Z,1004.53
2017-10-11T05:41:21.517Z,1004.49
2017-10-11T05:42:22.937Z,1004.51
2017-10-11T05:43:24.355Z,1004.52
2017-10-11T05:44:25.772Z,1004.52
2017-10-11T05:45:27.190Z,1004.49
2017-10-11T05:46:28.614Z,1004.45
2017-10-11T05:47:30.035Z,1004.49
2017-10-11T05:48:31.447Z,1004.58
2017-10-11T05:49:32.941Z,1004.51
2017-10-11T05:50:34.355Z,1004.56
2017-10-11T05:51:35.773Z,1004.55
2017-10-11T05:52:37.194Z,1004.57
2017-10-11T05:53:38.631Z,1004.58
2017-10-11T05:54:40.058Z,1004.58
2017-10-11T05:55:41.478Z,1004.57
2017-10-11T05:56:42.894Z,1004.58
2017-10-11T05:57:44.317Z,1004.63
2017-10-11T05:58:45.736Z,1004.60
2017-10-11T05:59:47.156Z,1004.59
2017-10-11T06:00:48.571Z,1004.61
2017-10-11T06:01:50.002Z,1004.61
2017-10-11T06:02:51.425Z,1004.59
2017-10-11T06:03:52.857Z,1004.61
2017-10-11T06:04:54.346Z,1004.64
2017-10-11T06:05:55.768Z,1004.63
2017-10-11T06:06:57.199Z,1004.66
2017-10-11T06:07:58.720Z,1004.63
2017-10-11T06:09:00.140Z,1004.58
2017-10-11T06:10:01.561Z,1004.63
2017-10-11T06:11:02.984Z,1004.59
2017-10-11T06:12:04.401Z,1004.65
2017-10-11T06:13:05.827Z,1004.68
2017-10-11T06:14:07.246Z,1004.63
2017-10-11T06:15:08.674Z,1004.68
2017-10-11T06:16:10.098Z,1004.65
2017-10-11T06:17:11.520Z,1004.68
2017-10-11T06:18:12.939Z,1004.69
2017-10-11T06:19:14.369Z,1004.67
2017-10-11T06:20:15.800Z,1004.70
2017-10-11T06:21:17.219Z,1004.73
2017-10-11T06:22:18.629Z,1004.68
2017-10-11T06:23:20.058Z,1004.71
2017-10-11T06:24:21.477Z,1004.67
2017-10-11T06:25:22.900Z,1004.72
2017-10-11T06:26:24.322Z,1004.68
2017-10-11T06:27:25.742Z,1004.69
2017-10-11T06:28:27.163Z,1004.73
2017-10-11T06:29:28.583Z,1004.69
2017-10-11T06:30:30.009Z,1004.69
2017-10-11T06:31:31.421Z,1004.75
2017-10-11T06:32:32.858Z,1004.77
2017-10-11T06:33:34.282Z,1004.65
2017-10-11T06:34:35.700Z,1004.71
2017-10-11T06:35:37.118Z,1004.71
2017-10-11T06:36:38.555Z,1004.69
2017-10-11T06:37:40.151Z,1004.71
2017-10-11T06:38:41.575Z,1004.75
2017-10-11T06:39:42.996Z,1004.71
2017-10-11T06:40:44.439Z,1004.74
2017-10-11T06:41:45.982Z,1004.76
2017-10-11T06:42:47.414Z,1004.75
2017-10-11T06:43:48.845Z,1004.74
2017-10-11T06:44:50.268Z,1004.77
2017-10-11T06:45:51.698Z,1004.77
2017-10-11T06:46:53.129Z,1004.79
2017-10-11T06:47:54.555Z,1004.80
2017-10-11T06:48:55.969Z,1004.76
2017-10-11T06:49:57.397Z,1004.84
2017-10-11T06:50:58.821Z,1004.86
2017-10-11T06:52:00.262Z,1004.83
2017-10-11T06:53:01.680Z,1004.81
2017-10-11T06:54:49.712Z,1004.79
2017-10-11T06:55:51.525Z,1004.78
2017-10-11T06:56:52.948Z,1004.84
2017-10-11T06:57:54.442Z,1004.83
2017-10-11T06:58:55.880Z,1004.86
2017-10-11T06:59:57.374Z,1004.85
2017-10-11T07:00:58.795Z,1004.87
2017-10-11T07:02:00.220Z,1004.87
2017-10-11T07:03:01.649Z,1004.86
2017-10-11T07:04:03.076Z,1004.86
2017-10-11T07:05:04.500Z,1004.90
2017-10-11T07:06:05.925Z,1004.89
2017-10-11T07:07:07.350Z,1004.90
2017-10-11T07:08:08.770Z,1004.95
2017-10-11T07:09:10.196Z,1004.92
2017-10-11T07:10:11.626Z,1004.92
2017-10-11T07:11:13.048Z,1004.93
2017-10-11T07:12:14.473Z,1004.97
2017-10-11T07:13:15.891Z,1004.94
2017-10-11T07:14:17.320Z,1004.95
2017-10-11T07:15:18.746Z,1004.94
2017-10-11T07:16:20.167Z,1004.92
2017-10-11T07:17:21.597Z,1004.92
2017-10-11T07:18:23.021Z,1005.02
2017-10-11T07:19:26.066Z,1004.92
2017-10-11T07:20:27.453Z,1004.95
2017-10-11T07:21:28.880Z,1004.94
2017-10-11T07:22:30.310Z,1004.98
2017-10-11T07:23:31.743Z,1004.95
2017-10-11T07:24:33.158Z,1004.96
2017-10-11T07:25:34.584Z,1004.99
2017-10-11T07:26:36.011Z,1005.01
2017-10-11T07:27:37.424Z,1005.05
2017-10-11T07:28:38.845Z,1005.03
2017-10-11T07:29:40.274Z,1004.97
2017-10-11T07:30:41.702Z,1005.00
2017-10-11T07:31:43.126Z,1004.94
2017-10-11T07:32:44.551Z,1005.06
2017-10-11T07:33:45.969Z,1005.01
2017-10-11T07:34:47.402Z,1005.00
2017-10-11T07:35:48.817Z,1005.01
2017-10-11T07:36:50.241Z,1005.02
2017-10-11T07:37:51.664Z,1005.05
2017-10-11T07:38:53.105Z,1005.02
2017-10-11T07:39:54.529Z,1005.08
2017-10-11T07:40:55.964Z,1005.06
2017-10-11T07:41:57.384Z,1005.07
2017-10-11T07:42:58.811Z,1005.10
2017-10-11T07:44:00.239Z,1005.05
2017-10-11T07:45:01.670Z,1005.08
2017-10-11T07:46:03.091Z,1005.02
2017-10-11T07:47:04.526Z,1005.04
2017-10-11T07:48:05.949Z,1005.11
2017-10-11T07:49:07.372Z,1005.09
2017-10-11T07:50:08.796Z,1005.08
2017-10-11T07:51:10.219Z,1005.08
2017-10-11T07:52:11.641Z,1005.13
2017-10-11T07:53:13.060Z,1005.10
2017-10-11T07:54:14.485Z,1005.14
2017-10-11T07:55:15.913Z,1005.12
2017-10-11T07:56:17.336Z,1005.19
2017-10-11T07:57:18.753Z,1005.13
2017-10-11T07:58:20.174Z,1005.14
2017-10-11T07:59:21.594Z,1005.19
2017-10-11T08:00:23.009Z,1005.12
2017-10-11T08:01:24.438Z,1005.16
2017-10-11T08:02:25.861Z,1005.16
2017-10-11T08:03:27.282Z,1005.21
2017-10-11T08:04:28.707Z,1005.19
2017-10-11T08:05:30.133Z,1005.20
2017-10-11T08:06:31.555Z,1005.16
2017-10-11T08:07:32.977Z,1005.19
2017-10-11T08:08:34.453Z,1005.17
2017-10-11T08:09:35.840Z,1005.16
2017-10-11T08:10:37.271Z,1005.16
2017-10-11T08:11:38.702Z,1005.17
2017-10-11T08:12:40.129Z,1005.18
2017-10-11T08:13:41.573Z,1005.15
2017-10-11T08:14:43.001Z,1005.21
2017-10-11T08:15:44.425Z,1005.21
2017-10-11T08:16:45.849Z,1005.26
2017-10-11T08:17:47.268Z,1005.26
2017-10-11T08:18:48.698Z,1005.23
2017-10-11T08:19:50.138Z,1005.30
2017-10-11T08:20:51.557Z,1005.26
2017-10-11T08:21:52.972Z,1005.30
2017-10-11T08:22:54.396Z,1005.32
2017-10-11T08:23:55.820Z,1005.28
2017-10-11T08:24:57.241Z,1005.29
2017-10-11T08:25:58.674Z,1005.36
2017-10-11T08:27:00.098Z,1005.32
2017-10-11T08:28:01.544Z,1005.33
2017-10-11T08:29:02.968Z,1005.34
2017-10-11T08:30:04.398Z,1005.38
2017-10-11T08:31:05.820Z,1005.38
2017-10-11T08:32:07.242Z,1005.39
2017-10-11T08:33:08.691Z,1005.31
2017-10-11T08:34:10.108Z,1005.32
2017-10-11T08:35:11.528Z,1005.35
2017-10-11T08:36:12.947Z,1005.35
2017-10-11T08:37:14.374Z,1005.36
2017-10-11T08:38:15.802Z,1005.36
2017-10-11T08:39:17.226Z,1005.36
2017-10-11T08:40:18.649Z,1005.32
2017-10-11T08:41:20.080Z,1005.36
2017-10-11T08:42:21.503Z,1005.37
2017-10-11T08:43:22.922Z,1005.37
2017-10-11T08:44:24.354Z,1005.34
2017-10-11T08:45:25.781Z,1005.37
2017-10-11T08:46:27.200Z,1005.39
2017-10-11T08:47:28.629Z,1005.37
2017-10-11T08:48:30.048Z,1005.39
2017-10-11T08:49:31.480Z,1005.37
2017-10-11T08:50:32.897Z,1005.41
2017-10-11T08:51:34.323Z,1005.40
2017-10-11T08:52:35.758Z,1005.41
2017-10-11T08:53:37.176Z,1005.42
2017-10-11T08:54:38.594Z,1005.47
2017-10-11T08:55:40.017Z,1005.44
2017-10-11T08:56:41.491Z,1005.49
2017-10-11T08:57:42.918Z,1005.50
2017-10-11T08:58:44.339Z,1005.55
2017-10-11T08:59:45.759Z,1005.56
2017-10-11T09:00:47.193Z,1005.55
2017-10-11T09:01:48.615Z,1005.51
2017-10-11T09:02:50.031Z,1005.56
2017-10-11T09:03:51.456Z,1005.51
2017-10-11T09:04:52.880Z,1005.62
2017-10-11T09:05:54.308Z,1005.56
2017-10-11T09:06:55.738Z,1005.63
2017-10-11T09:07:57.167Z,1005.61
2017-10-11T09:08:58.589Z,1005.62
2017-10-11T09:10:00.016Z,1005.65
2017-10-11T09:11:01.434Z,1005.64
2017-10-11T09:12:02.859Z,1005.64
2017-10-11T09:13:04.283Z,1005.57
2017-10-11T09:14:05.720Z,1005.64
2017-10-11T09:15:07.144Z,1005.58
2017-10-11T09:16:08.577Z,1005.56
2017-10-11T09:17:10.006Z,1005.56
2017-10-11T09:18:11.426Z,1005.55
2017-10-11T09:19:12.847Z,1005.58
2017-10-11T09:20:14.277Z,1005.54
2017-10-11T09:21:15.708Z,1005.59
2017-10-11T09:22:17.130Z,1005.55
2017-10-11T09:23:18.550Z,1005.57
2017-10-11T09:24:19.969Z,1005.58
2017-10-11T09:25:21.401Z,1005.54
2017-10-11T09:26:22.822Z,1005.59
2017-10-11T09:27:24.248Z,1005.59
2017-10-11T09:28:25.667Z,1005.58
2017-10-11T09:29:27.093Z,1005.55
2017-10-11T09:30:28.511Z,1005.58
2017-10-11T09:31:29.931Z,1005.53
2017-10-11T09:32:31.352Z,1005.50
2017-10-11T09:33:32.779Z,1005.53
2017-10-11T09:34:34.216Z,1005.52
2017-10-11T09:35:35.695Z,1005.52
2017-10-11T09:36:37.119Z,1005.52
2017-10-11T09:37:38.540Z,1005.48
2017-10-11T09:38:39.976Z,1005.50
2017-10-11T09:39:41.393Z,1005.48
2017-10-11T09:40:42.815Z,1005.48
2017-10-11T09:41:44.235Z,1005.48
2017-10-11T09:42:45.659Z,1005.50
2017-10-11T09:43:47.086Z,1005.46
2017-10-11T09:44:48.556Z,1005.47
2017-10-11T09:45:49.983Z,1005.42
2017-10-11T09:46:51.401Z,1005.45
2017-10-11T09:47:52.831Z,1005.46
2017-10-11T09:48:54.258Z,1005.48
2017-10-11T09:49:55.686Z,1005.41
2017-10-11T09:50:57.111Z,1005.48
2017-10-11T09:51:58.542Z,1005.42
2017-10-11T09:52:59.970Z,1005.43
2017-10-11T09:54:01.402Z,1005.48
2017-10-11T09:55:02.827Z,1005.41
2017-10-11T09:56:05.293Z,1005.48
2017-10-11T09:57:06.717Z,1005.35
2017-10-11T09:58:08.141Z,1005.39
2017-10-11T09:59:09.574Z,1005.34
2017-10-11T10:00:11.008Z,1005.38
2017-10-11T10:01:12.438Z,1005.33
2017-10-11T10:02:13.866Z,1005.38
2017-10-11T10:03:15.291Z,1005.37
2017-10-11T10:04:16.717Z,1005.38
2017-10-11T10:05:18.150Z,1005.41
2017-10-11T10:06:19.575Z,1005.36
2017-10-11T10:07:21.040Z,1005.37
2017-10-11T10:08:22.474Z,1005.41
2017-10-11T10:09:23.893Z,1005.39
2017-10-11T10:10:25.313Z,1005.37
2017-10-11T10:11:26.736Z,1005.38
2017-10-11T10:12:28.159Z,1005.38
2017-10-11T10:13:29.598Z,1005.36
2017-10-11T10:14:31.027Z,1005.38
2017-10-11T10:15:32.450Z,1005.43
2017-10-11T10:16:33.874Z,1005.36
2017-10-11T10:17:35.307Z,1005.43
2017-10-11T10:18:37.363Z,1005.36
2017-10-11T10:19:38.796Z,1005.43
2017-10-11T10:20:40.228Z,1005.35
2017-10-11T10:21:41.640Z,1005.42
2017-10-11T10:22:43.068Z,1005.40
2017-10-11T10:23:44.494Z,1005.40
2017-10-11T10:24:45.927Z,1005.40
2017-10-11T10:25:47.344Z,1005.40
2017-10-11T10:26:48.767Z,1005.40
2017-10-11T10:27:50.201Z,1005.43
2017-10-11T10:28:51.622Z,1005.41
2017-10-11T10:29:53.045Z,1005.40
2017-10-11T10:30:54.468Z,1005.40
2017-10-11T10:31:55.889Z,1005.38
2017-10-11T10:32:57.319Z,1005.35
2017-10-11T10:33:58.742Z,1005.38
2017-10-11T10:35:00.184Z,1005.43
2017-10-11T10:36:01.601Z,1005.37
2017-10-11T10:37:03.018Z,1005.42
2017-10-11T10:38:04.453Z,1005.32
2017-10-11T10:39:05.878Z,1005.40
2017-10-11T10:40:07.295Z,1005.36
2017-10-11T10:41:08.718Z,1005.39
2017-10-11T10:42:10.140Z,1005.37
2017-10-11T10:43:11.569Z,1005.38
2017-10-11T10:44:13.002Z,1005.36
2017-10-11T10:45:14.428Z,1005.39
2017-10-11T10:46:15.878Z,1005.36
2017-10-11T10:47:17.316Z,1005.46
2017-10-11T10:48:18.737Z,1005.36
2017-10-11T10:49:20.167Z,1005.42
2017-10-11T10:50:21.586Z,1005.38
2017-10-11T10:51:23.012Z,1005.37
2017-10-11T10:52:24.454Z,1005.34
2017-10-11T10:53:25.895Z,1005.35
2017-10-11T10:54:27.317Z,1005.31
2017-10-11T10:55:28.743Z,1005.40
2017-10-11T10:56:30.184Z,1005.36
2017-10-11T10:57:31.610Z,1005.37
2017-10-11T10:58:33.031Z,1005.40
2017-10-11T10:59:34.457Z,1005.35
2017-10-11T11:00:35.891Z,1005.33
2017-10-11T11:01:37.313Z,1005.38
2017-10-11T11:02:38.729Z,1005.30
2017-10-11T11:03:40.149Z,1005.30
2017-10-11T11:04:41.586Z,1005.35
2017-10-11T11:05:43.015Z,1005.34
2017-10-11T11:06:44.442Z,1005.31
2017-10-11T11:07:45.871Z,1005.34
2017-10-11T11:08:47.295Z,1005.29
2017-10-11T11:09:48.721Z,1005.33
2017-10-11T11:10:50.149Z,1005.31
2017-10-11T11:11:51.581Z,1005.32
2017-10-11T11:12:53.031Z,1005.29
2017-10-11T11:13:54.467Z,1005.24
2017-10-11T11:14:55.893Z,1005.29
2017-10-11T11:15:57.318Z,1005.29
2017-10-11T11:16:58.754Z,1005.24
2017-10-11T11:18:00.176Z,1005.27
2017-10-11T11:19:01.598Z,1005.21
2017-10-11T11:20:03.026Z,1005.21
2017-10-11T11:21:04.584Z,1005.26
2017-10-11T11:22:06.014Z,1005.27
2017-10-11T11:23:07.434Z,1005.25
2017-10-11T11:24:08.857Z,1005.23
2017-10-11T11:25:10.282Z,1005.15
2017-10-11T11:26:11.722Z,1005.16
2017-10-11T11:27:13.142Z,1005.14
2017-10-11T11:28:14.574Z,1005.17
2017-10-11T11:29:15.999Z,1005.22
2017-10-11T11:30:17.428Z,1005.06
2017-10-11T11:31:18.844Z,1005.12
2017-10-11T11:32:20.286Z,1005.16
2017-10-11T11:33:21.711Z,1005.12
2017-10-11T11:34:23.138Z,1005.14
2017-10-11T11:35:24.555Z,1005.09
2017-10-11T11:36:25.983Z,1005.12
2017-10-11T11:37:27.401Z,1005.12
2017-10-11T11:38:28.831Z,1005.14
2017-10-11T11:39:30.265Z,1005.08
2017-10-11T11:40:31.690Z,1005.15
2017-10-11T11:41:33.117Z,1005.03
2017-10-11T11:42:34.537Z,1005.10
2017-10-11T11:43:35.978Z,1005.08
2017-10-11T11:44:37.400Z,1005.13
2017-10-11T11:45:38.836Z,1005.06
2017-10-11T11:46:40.245Z,1005.09
2017-10-11T11:47:41.666Z,1005.05
2017-10-11T11:48:43.087Z,1005.04
2017-10-11T11:49:44.519Z,1005.04
2017-10-11T11:50:45.941Z,1005.04
2017-10-11T11:51:47.365Z,1005.08
2017-10-11T11:52:48.785Z,1005.06
2017-10-11T11:53:50.217Z,1005.09
2017-10-11T11:54:51.640Z,1005.05
2017-10-11T11:55:53.104Z,1005.02
2017-10-11T11:56:54.529Z,1005.00
2017-10-11T11:57:55.956Z,1005.00
2017-10-11T11:58:57.417Z,1005.03
2017-10-11T11:59:58.848Z,1005.02
2017-10-11T12:01:00.325Z,1005.03
2017-10-11T12:02:01.760Z,1004.97
2017-10-11T12:03:03.247Z,1004.98
2017-10-11T12:04:04.671Z,1005.02
2017-10-11T12:05:06.094Z,1005.04
2017-10-11T12:06:07.538Z,1004.93
2017-10-11T12:07:08.960Z,1004.99
2017-10-11T12:08:10.467Z,1005.02
2017-10-11T12:09:11.888Z,1004.95
2017-10-11T12:10:13.411Z,1005.03
2017-10-11T12:11:14.845Z,1005.00
2017-10-11T12:12:16.272Z,1004.97
2017-10-11T12:13:17.696Z,1004.97
2017-10-11T12:14:19.122Z,1005.00
2017-10-11T12:15:20.552Z,1005.02
2017-10-11T12:16:21.975Z,1004.98
2017-10-11T12:17:23.400Z,1004.95
2017-10-11T12:18:24.854Z,1004.97
2017-10-11T12:19:26.287Z,1004.98
2017-10-11T12:20:27.725Z,1004.92
2017-10-11T12:21:29.158Z,1004.99
2017-10-11T12:22:30.574Z,1004.96
2017-10-11T12:23:32.000Z,1005.03